Time;durP1;ratioP1;P1;durP2;ratioP2;P2;SDS_P1;SDS_P2;PMS_P1;PMS_P2;Temp;Humidity;BMP_temperature;BMP_pressure;BME280_temperature;BME280_humidity;BME280_pressure;Samples;Min_cycle;Max_cycle;Signal;HPM_P1;HPM_P2
2022/05/29 00:01:38;;;;;;;22.60;7.70;;;10.50;99.90;;;;;;5063283;28;20045;-66
2022/05/29 00:04:04;;;;;;;19.27;8.05;;;10.50;99.90;;;;;;5061774;28;20044;-66
2022/05/29 00:06:37;;;;;;;19.20;8.38;;;10.60;99.90;;;;;;5061834;28;20059;-66
2022/05/29 00:09:03;;;;;;;26.80;8.90;;;10.60;99.90;;;;;;5049433;28;20144;-66
2022/05/29 00:11:28;;;;;;;19.02;8.77;;;10.60;99.90;;;;;;5051465;28;20167;-66
2022/05/29 00:13:54;;;;;;;13.18;7.70;;;10.50;99.90;;;;;;5054898;28;20514;-66
2022/05/29 00:16:20;;;;;;;18.80;7.82;;;10.50;99.90;;;;;;5048544;28;20166;-66
2022/05/29 00:18:46;;;;;;;28.35;8.43;;;10.50;99.90;;;;;;5056782;28;20980;-66
2022/05/29 00:21:12;;;;;;;22.67;8.48;;;10.60;99.90;;;;;;5051598;28;20053;-66
2022/05/29 00:23:41;;;;;;;17.77;8.68;;;10.50;99.90;;;;;;5055511;28;20047;-66
2022/05/29 00:26:07;;;;;;;21.63;8.23;;;10.50;99.90;;;;;;5049976;28;20053;-66
2022/05/29 00:28:33;;;;;;;27.30;8.55;;;10.50;99.90;;;;;;5063848;28;20040;-66
2022/05/29 00:30:59;;;;;;;22.95;9.20;;;10.50;99.90;;;;;;5054853;28;20048;-66
2022/05/29 00:33:24;;;;;;;30.08;8.88;;;10.50;99.90;;;;;;5046776;28;21741;-66
2022/05/29 00:35:52;;;;;;;19.88;8.40;;;10.50;99.90;;;;;;5047734;28;20049;-66
2022/05/29 00:38:18;;;;;;;18.75;8.82;;;10.50;99.90;;;;;;5061222;28;20123;-66
2022/05/29 00:40:59;;;;;;;22.73;9.77;;;10.40;99.90;;;;;;5055037;28;20116;-66
2022/05/29 00:43:24;;;;;;;20.60;9.48;;;10.40;99.90;;;;;;5061473;28;20520;-66
2022/05/29 00:45:55;;;;;;;32.55;10.10;;;10.40;99.90;;;;;;5052111;28;20048;-66
2022/05/29 00:48:21;;;;;;;14.50;7.15;;;10.40;99.90;;;;;;5064668;28;20052;-66
2022/05/29 00:50:49;;;;;;;28.45;8.57;;;10.40;99.90;;;;;;5054570;28;20207;-66
2022/05/29 00:53:15;;;;;;;27.23;8.25;;;10.40;99.90;;;;;;5059180;28;20103;-66
2022/05/29 00:55:49;;;;;;;12.25;7.07;;;10.30;99.90;;;;;;5064829;28;20394;-66
2022/05/29 00:58:15;;;;;;;21.55;8.40;;;10.30;99.90;;;;;;5054133;28;20047;-66
2022/05/29 01:00:41;;;;;;;15.45;6.82;;;10.20;99.90;;;;;;5066490;28;20041;-66
2022/05/29 01:03:07;;;;;;;15.82;8.88;;;10.20;99.90;;;;;;5053706;28;20048;-66
2022/05/29 01:05:35;;;;;;;28.20;8.07;;;10.20;99.90;;;;;;5065173;28;20047;-66
2022/05/29 01:08:09;;;;;;;15.45;9.20;;;10.10;99.90;;;;;;5057146;28;20119;-66
2022/05/29 01:10:49;;;;;;;27.55;10.20;;;10.10;99.90;;;;;;5064462;28;20044;-66
2022/05/29 01:13:29;;;;;;;27.15;8.65;;;10.10;99.90;;;;;;5053181;28;20278;-66
2022/05/29 01:16:00;;;;;;;27.23;8.95;;;10.10;99.90;;;;;;5049954;28;20781;-66
2022/05/29 01:18:32;;;;;;;26.38;8.85;;;10.10;99.90;;;;;;5059138;28;20053;-66
2022/05/29 01:21:28;;;;;;;23.33;8.85;;;10.10;99.90;;;;;;5050888;28;20414;-66
2022/05/29 01:24:28;;;;;;;24.85;8.45;;;10.10;99.90;;;;;;5062281;28;20079;-66
2022/05/29 01:27:39;;;;;;;21.52;8.93;;;10.20;99.90;;;;;;5035327;28;20081;-66
2022/05/29 01:30:24;;;;;;;16.33;7.95;;;10.10;99.90;;;;;;5025365;28;20053;-66
2022/05/29 01:33:08;;;;;;;14.20;8.18;;;10.20;99.90;;;;;;5051218;28;20049;-66
2022/05/29 01:35:45;;;;;;;18.55;7.63;;;10.10;99.90;;;;;;5050446;28;20463;-66
2022/05/29 01:38:23;;;;;;;22.80;8.50;;;10.10;99.90;;;;;;5064607;28;20645;-66
2022/05/29 01:41:06;;;;;;;22.70;8.07;;;10.10;99.90;;;;;;5058185;28;20121;-66
2022/05/29 01:43:44;;;;;;;19.95;9.15;;;10.00;99.90;;;;;;5054981;28;20051;-66
2022/05/29 01:46:31;;;;;;;16.17;8.73;;;10.00;99.90;;;;;;5056489;28;20103;-66
2022/05/29 01:49:19;;;;;;;24.90;9.73;;;10.00;99.90;;;;;;5056450;28;20431;-66
2022/05/29 01:52:00;;;;;;;20.05;8.48;;;9.90;99.90;;;;;;5051070;28;20041;-66
2022/05/29 01:54:35;;;;;;;21.67;7.65;;;9.90;99.90;;;;;;5061966;28;20127;-66
2022/05/29 01:57:17;;;;;;;21.20;8.35;;;9.90;99.90;;;;;;5049917;28;20134;-66
2022/05/29 01:59:57;;;;;;;19.00;7.70;;;9.90;99.90;;;;;;5048619;28;20084;-66
2022/05/29 02:02:34;;;;;;;17.83;8.70;;;9.90;99.90;;;;;;5051103;28;20072;-66
2022/05/29 02:05:03;;;;;;;18.83;8.60;;;9.90;99.90;;;;;;5059983;28;20036;-66
2022/05/29 02:07:50;;;;;;;14.07;8.05;;;9.90;99.90;;;;;;5051578;28;20055;-67
2022/05/29 02:10:34;;;;;;;23.02;8.30;;;9.90;99.90;;;;;;5062501;28;20586;-67
2022/05/29 02:13:23;;;;;;;21.05;7.95;;;9.80;99.90;;;;;;5053989;28;20045;-67
2022/05/29 02:15:55;;;;;;;21.55;8.18;;;9.80;99.90;;;;;;5054787;28;20033;-66
2022/05/29 02:18:34;;;;;;;25.42;10.85;;;9.80;99.90;;;;;;5053999;28;20068;-66
2022/05/29 02:21:10;;;;;;;54.35;10.68;;;9.80;99.90;;;;;;5054805;28;20047;-67
2022/05/29 02:23:41;;;;;;;18.60;7.45;;;9.70;99.90;;;;;;5051161;28;20406;-67
2022/05/29 02:26:14;;;;;;;31.75;9.48;;;9.70;99.90;;;;;;5051745;28;20114;-66
2022/05/29 02:28:44;;;;;;;23.70;8.32;;;9.70;99.90;;;;;;5054306;28;20083;-66
2022/05/29 02:31:19;;;;;;;15.93;7.72;;;9.70;99.90;;;;;;5057785;28;20043;-66
2022/05/29 02:33:58;;;;;;;25.73;9.40;;;9.70;99.90;;;;;;5057268;28;20603;-66
2022/05/29 02:36:50;;;;;;;27.95;8.43;;;9.70;99.90;;;;;;5049132;28;20326;-66
2022/05/29 02:39:35;;;;;;;23.27;8.82;;;9.70;99.90;;;;;;5045320;28;20136;-66
2022/05/29 02:42:27;;;;;;;18.40;8.82;;;9.70;99.90;;;;;;5056505;28;20044;-66
2022/05/29 02:45:07;;;;;;;23.98;9.38;;;9.80;99.90;;;;;;5055162;28;20048;-66
2022/05/29 02:47:54;;;;;;;21.35;8.57;;;9.80;99.90;;;;;;5052015;28;20192;-67
2022/05/29 02:50:29;;;;;;;16.60;8.52;;;9.80;99.90;;;;;;5048083;28;20052;-66
2022/05/29 02:52:59;;;;;;;19.98;8.57;;;9.80;99.90;;;;;;5052954;28;20525;-66
2022/05/29 02:55:26;;;;;;;22.38;9.60;;;9.80;99.90;;;;;;5056272;28;20446;-66
2022/05/29 02:57:56;;;;;;;22.60;8.65;;;9.80;99.90;;;;;;5056362;28;20730;-66
2022/05/29 03:00:22;;;;;;;19.75;8.68;;;9.80;99.90;;;;;;5053526;28;20033;-66
2022/05/29 03:03:06;;;;;;;36.65;9.52;;;9.80;99.90;;;;;;5051172;28;20048;-66
2022/05/29 03:06:00;;;;;;;18.58;8.43;;;9.80;99.90;;;;;;5057940;28;20158;-66
2022/05/29 03:09:06;;;;;;;24.27;9.07;;;9.70;99.90;;;;;;5049134;28;20051;-66
2022/05/29 03:11:44;;;;;;;24.35;9.68;;;9.70;99.90;;;;;;5057643;28;20056;-66
2022/05/29 03:14:25;;;;;;;22.17;9.55;;;9.70;99.90;;;;;;5060349;28;20489;-66
2022/05/29 03:17:27;;;;;;;16.70;9.10;;;9.70;99.90;;;;;;5060069;28;20074;-66
2022/05/29 03:19:52;;;;;;;24.55;9.60;;;9.70;99.90;;;;;;5048665;28;20060;-67
2022/05/29 03:22:43;;;;;;;30.23;9.65;;;9.70;99.90;;;;;;5049419;28;20049;-66
2022/05/29 03:25:25;;;;;;;23.10;9.57;;;9.70;99.90;;;;;;5054807;28;20041;-66
2022/05/29 03:27:52;;;;;;;32.42;9.82;;;9.70;99.90;;;;;;5060346;28;20044;-67
2022/05/29 03:30:21;;;;;;;24.05;9.10;;;9.70;99.90;;;;;;5062746;28;20413;-67
2022/05/29 03:32:57;;;;;;;24.13;9.55;;;9.70;99.90;;;;;;5063427;28;20069;-67
2022/05/29 03:35:33;;;;;;;18.02;8.82;;;9.70;99.90;;;;;;5057307;28;20137;-66
2022/05/29 03:38:01;;;;;;;17.77;8.55;;;9.80;99.90;;;;;;5065507;28;20119;-66
2022/05/29 03:40:29;;;;;;;18.80;8.07;;;9.80;99.90;;;;;;5049198;28;20045;-66
2022/05/29 03:42:56;;;;;;;26.77;8.93;;;9.80;99.90;;;;;;5047793;28;20106;-66
2022/05/29 03:45:22;;;;;;;23.67;9.55;;;9.80;99.90;;;;;;5053398;28;20075;-66
2022/05/29 03:47:48;;;;;;;27.63;10.35;;;9.80;99.90;;;;;;5052742;28;20045;-66
2022/05/29 03:50:17;;;;;;;28.38;9.60;;;9.70;99.90;;;;;;5057552;28;20513;-66
2022/05/29 03:52:43;;;;;;;21.70;9.30;;;9.70;99.90;;;;;;5059448;28;20040;-66
2022/05/29 03:55:10;;;;;;;19.80;8.82;;;9.70;99.90;;;;;;5054849;28;20441;-66
2022/05/29 03:57:36;;;;;;;32.50;10.00;;;9.70;99.90;;;;;;5062652;28;20409;-66
2022/05/29 04:00:04;;;;;;;20.13;8.63;;;9.70;99.90;;;;;;5055826;28;20041;-66
2022/05/29 04:02:30;;;;;;;18.50;8.68;;;9.70;99.90;;;;;;5060098;28;20087;-65
2022/05/29 04:04:56;;;;;;;17.02;8.07;;;9.80;99.90;;;;;;5053527;28;20084;-65
2022/05/29 04:12:03;;;;;;;31.00;8.95;;;9.80;99.90;;;;;;5045953;28;20122;-65
2022/05/29 04:12:53;;;;;;;22.00;8.20;;;9.80;99.90;;;;;;5046037;28;20057;-65
2022/05/29 04:15:19;;;;;;;36.80;10.30;;;9.90;99.90;;;;;;5055803;28;20036;-66
2022/05/29 04:17:44;;;;;;;13.43;7.72;;;9.90;99.90;;;;;;5062842;28;20052;-66
2022/05/29 04:20:10;;;;;;;14.55;7.18;;;9.90;99.90;;;;;;5046914;28;20041;-66
2022/05/29 04:22:36;;;;;;;25.90;9.65;;;9.90;99.90;;;;;;5053618;28;20063;-66
2022/05/29 04:25:02;;;;;;;23.20;6.95;;;9.90;99.90;;;;;;5050127;28;20616;-67
2022/05/29 04:27:28;;;;;;;23.90;8.25;;;10.00;99.90;;;;;;5055627;28;20037;-67
2022/05/29 04:29:53;;;;;;;22.27;8.13;;;10.00;99.90;;;;;;5053150;28;20032;-67
2022/05/29 04:35:06;;;;;;;14.63;6.72;;;10.00;99.90;;;;;;5064957;28;20087;-67
2022/05/29 04:37:31;;;;;;;19.85;7.63;;;10.00;99.90;;;;;;5059549;28;20041;-67
2022/05/29 04:39:57;;;;;;;20.42;6.57;;;10.00;99.90;;;;;;5052839;28;20346;-67
2022/05/29 04:42:23;;;;;;;15.88;7.28;;;10.00;99.90;;;;;;5051000;28;20101;-67
2022/05/29 04:44:48;;;;;;;24.98;7.18;;;10.00;99.90;;;;;;5058943;28;20040;-67
2022/05/29 04:47:14;;;;;;;12.25;6.53;;;10.00;99.90;;;;;;5066784;28;20036;-67
2022/05/29 04:49:40;;;;;;;24.83;8.45;;;10.10;99.90;;;;;;5047824;28;20068;-67
2022/05/29 04:52:07;;;;;;;17.77;7.30;;;10.00;99.90;;;;;;5047448;28;20049;-67
2022/05/29 04:54:37;;;;;;;26.20;7.57;;;10.10;99.90;;;;;;5051201;28;20187;-68
2022/05/29 04:57:05;;;;;;;26.83;7.43;;;10.10;99.90;;;;;;5049893;28;20041;-67
2022/05/29 04:59:32;;;;;;;16.83;6.88;;;10.10;99.90;;;;;;5047104;28;20052;-67
2022/05/29 05:01:59;;;;;;;21.13;6.57;;;10.10;99.90;;;;;;5050838;28;20778;-67
2022/05/29 05:04:24;;;;;;;23.92;7.20;;;10.10;99.90;;;;;;5048340;28;20548;-67
2022/05/29 05:06:54;;;;;;;24.73;6.90;;;10.20;99.90;;;;;;5049891;28;20033;-68
2022/05/29 05:09:19;;;;;;;32.92;7.18;;;10.20;99.90;;;;;;5052638;28;20064;-67
2022/05/29 05:11:45;;;;;;;16.17;6.65;;;10.20;99.90;;;;;;5062603;28;20745;-68
2022/05/29 05:14:10;;;;;;;23.13;7.03;;;10.20;99.90;;;;;;5051351;28;20140;-66
2022/05/29 05:16:36;;;;;;;16.42;6.25;;;10.20;99.90;;;;;;5049006;28;20044;-66
2022/05/29 05:19:02;;;;;;;26.60;6.75;;;10.20;99.90;;;;;;5050551;28;20650;-67
2022/05/29 05:21:27;;;;;;;13.50;6.18;;;10.20;99.90;;;;;;5050123;28;20071;-68
2022/05/29 05:23:53;;;;;;;23.52;7.13;;;10.20;99.90;;;;;;5047495;28;20132;-66
2022/05/29 05:26:19;;;;;;;19.42;6.32;;;10.20;99.90;;;;;;5053085;28;20064;-67
2022/05/29 05:28:45;;;;;;;18.05;6.60;;;10.20;99.90;;;;;;5061715;28;20033;-67
2022/05/29 05:31:10;;;;;;;14.50;6.30;;;10.20;99.90;;;;;;5063599;28;20044;-67
2022/05/29 05:33:36;;;;;;;16.67;5.13;;;10.20;99.90;;;;;;5064658;28;20037;-68
2022/05/29 05:36:02;;;;;;;16.23;6.22;;;10.30;99.90;;;;;;5062368;28;20128;-67
2022/05/29 05:38:28;;;;;;;22.17;5.70;;;10.30;99.90;;;;;;5058954;28;20045;-67
2022/05/29 05:40:53;;;;;;;17.85;6.43;;;10.30;99.90;;;;;;5054948;28;20037;-67
2022/05/29 05:43:19;;;;;;;13.70;5.03;;;10.30;99.90;;;;;;5051684;28;20037;-68
2022/05/29 05:45:45;;;;;;;15.68;5.43;;;10.30;99.90;;;;;;5064699;28;20040;-67
2022/05/29 05:48:11;;;;;;;14.38;5.70;;;10.40;99.90;;;;;;5060985;28;20398;-68
2022/05/29 05:50:39;;;;;;;16.77;6.68;;;10.40;99.90;;;;;;5054324;28;20498;-68
2022/05/29 05:53:05;;;;;;;19.02;5.85;;;10.40;99.90;;;;;;5054555;28;20512;-68
2022/05/29 05:55:31;;;;;;;13.13;5.72;;;10.50;99.90;;;;;;5058055;28;20095;-68
2022/05/29 05:57:57;;;;;;;14.95;5.78;;;10.50;99.90;;;;;;5054829;28;20497;-67
2022/05/29 06:00:23;;;;;;;23.05;6.60;;;10.50;99.90;;;;;;5053110;28;20041;-68
2022/05/29 06:02:49;;;;;;;18.40;5.90;;;10.60;99.90;;;;;;5050364;28;20045;-68
2022/05/29 06:05:15;;;;;;;15.77;5.90;;;10.60;99.90;;;;;;5050621;28;20045;-68
2022/05/29 06:07:41;;;;;;;13.45;5.50;;;10.70;99.90;;;;;;5054878;28;20056;-68
2022/05/29 06:10:08;;;;;;;13.02;5.82;;;10.80;99.90;;;;;;5054046;28;20124;-68
2022/05/29 06:12:34;;;;;;;19.10;5.88;;;10.80;99.90;;;;;;5054565;28;20037;-67
2022/05/29 06:15:00;;;;;;;14.07;6.15;;;10.80;99.90;;;;;;5048955;28;20040;-67
2022/05/29 06:17:30;;;;;;;20.73;7.00;;;10.80;99.90;;;;;;5048614;28;20056;-67
2022/05/29 06:19:55;;;;;;;16.15;5.00;;;10.80;99.90;;;;;;5059102;28;20083;-68
2022/05/29 06:22:21;;;;;;;22.98;6.38;;;10.90;99.90;;;;;;5057398;28;20065;-68
2022/05/29 06:24:47;;;;;;;12.15;5.53;;;10.90;99.90;;;;;;5050019;28;20044;-69
2022/05/29 06:27:12;;;;;;;16.70;6.35;;;10.90;99.90;;;;;;5050821;28;20052;-68
2022/05/29 06:29:38;;;;;;;15.90;6.47;;;10.90;99.90;;;;;;5051296;28;20402;-67
2022/05/29 06:32:08;;;;;;;26.95;7.20;;;10.80;99.90;;;;;;5058852;28;20049;-68
2022/05/29 06:34:35;;;;;;;13.98;5.95;;;10.80;99.90;;;;;;5051278;28;20132;-68
2022/05/29 06:37:07;;;;;;;14.95;5.32;;;10.90;99.90;;;;;;5049368;28;20049;-68
2022/05/29 06:39:36;;;;;;;17.65;4.82;;;10.90;99.90;;;;;;5055837;28;20048;-68
2022/05/29 06:42:03;;;;;;;14.70;5.10;;;10.90;99.90;;;;;;5050192;28;20128;-68
2022/05/29 06:44:28;;;;;;;29.67;7.22;;;10.90;99.90;;;;;;5051758;28;20085;-67
2022/05/29 06:46:54;;;;;;;18.23;5.47;;;11.00;99.90;;;;;;5052152;28;20033;-68
2022/05/29 06:49:21;;;;;;;16.40;5.85;;;11.00;99.90;;;;;;5052846;28;20044;-68
2022/05/29 06:51:46;;;;;;;19.95;5.90;;;11.10;99.90;;;;;;5056420;28;20048;-68
2022/05/29 06:54:12;;;;;;;14.35;6.20;;;11.20;99.90;;;;;;5055075;28;20044;-68
2022/05/29 06:56:38;;;;;;;24.75;6.82;;;11.20;99.90;;;;;;5052732;28;20559;-68
2022/05/29 06:59:06;;;;;;;17.33;5.70;;;11.30;99.90;;;;;;5058178;28;20033;-68
2022/05/29 07:06:59;;;;;;;21.75;5.68;;;11.30;99.90;;;;;;5051942;28;20411;-68
2022/05/29 07:07:23;;;;;;;25.52;6.38;;;11.30;99.90;;;;;;5047352;28;20437;-68
2022/05/29 07:09:49;;;;;;;22.80;5.82;;;11.30;99.90;;;;;;5056174;28;20044;-68
2022/05/29 07:12:16;;;;;;;29.85;6.43;;;11.40;99.90;;;;;;5056146;28;20454;-68
2022/05/29 07:14:51;;;;;;;21.75;6.13;;;11.40;99.90;;;;;;5053240;28;20041;-68
2022/05/29 07:17:18;;;;;;;32.50;6.35;;;11.40;99.90;;;;;;5054752;28;20162;-68
2022/05/29 07:19:45;;;;;;;23.88;6.50;;;11.40;99.90;;;;;;5053211;28;20079;-69
2022/05/29 07:22:11;;;;;;;32.83;6.30;;;11.50;99.90;;;;;;5052415;28;20068;-67
2022/05/29 07:24:38;;;;;;;29.42;6.82;;;11.50;99.90;;;;;;5053379;28;20055;-67
2022/05/29 07:27:05;;;;;;;22.75;5.57;;;11.40;99.90;;;;;;5055054;28;20093;-67
2022/05/29 07:29:31;;;;;;;17.13;6.10;;;11.50;99.90;;;;;;5054090;28;20041;-67
2022/05/29 07:31:57;;;;;;;20.88;6.72;;;11.50;99.90;;;;;;5058468;28;20055;-67
2022/05/29 07:34:24;;;;;;;12.98;4.97;;;11.50;99.90;;;;;;5047764;28;20048;-67
2022/05/29 07:36:51;;;;;;;17.52;5.68;;;11.40;99.90;;;;;;5051547;28;20049;-67
2022/05/29 07:39:19;;;;;;;18.40;5.82;;;11.50;99.90;;;;;;5050649;28;20044;-67
2022/05/29 07:44:30;;;;;;;18.58;5.70;;;11.50;99.90;;;;;;5050337;28;20048;-67
2022/05/29 07:46:56;;;;;;;16.20;6.32;;;11.50;99.90;;;;;;5050875;28;20036;-67
2022/05/29 07:49:22;;;;;;;20.58;6.28;;;11.50;99.90;;;;;;5046836;28;20128;-67
2022/05/29 07:51:49;;;;;;;21.60;5.13;;;11.50;99.90;;;;;;5060391;28;20049;-67
2022/05/29 07:54:14;;;;;;;17.88;5.50;;;11.50;99.90;;;;;;5047844;28;20076;-67
2022/05/29 07:56:40;;;;;;;18.80;5.30;;;11.60;99.90;;;;;;5048144;28;20142;-66
2022/05/29 07:59:06;;;;;;;14.23;5.03;;;11.60;99.90;;;;;;5049839;28;20073;-67
2022/05/29 08:01:32;;;;;;;18.33;5.30;;;11.60;99.90;;;;;;5048301;28;20048;-66
2022/05/29 08:03:58;;;;;;;17.80;5.28;;;11.60;99.90;;;;;;5046706;28;20140;-66
2022/05/29 08:06:24;;;;;;;22.73;6.47;;;11.60;99.90;;;;;;5048732;28;20082;-67
2022/05/29 08:08:50;;;;;;;20.13;6.97;;;11.70;99.90;;;;;;5051616;28;20048;-67
2022/05/29 08:11:17;;;;;;;10.68;4.95;;;11.70;99.90;;;;;;5059871;28;20044;-66
2022/05/29 08:13:44;;;;;;;11.05;3.95;;;11.70;99.90;;;;;;5050251;28;20058;-67
2022/05/29 08:16:11;;;;;;;12.00;3.90;;;11.60;99.90;;;;;;5049636;28;20090;-67
2022/05/29 08:18:38;;;;;;;12.50;4.43;;;11.60;99.90;;;;;;5051273;28;20045;-67
2022/05/29 08:21:04;;;;;;;14.63;4.50;;;11.60;99.90;;;;;;5064112;28;20071;-66
2022/05/29 08:23:29;;;;;;;7.18;3.35;;;11.60;99.90;;;;;;5049238;28;20119;-66
2022/05/29 08:31:28;;;;;;;17.73;6.38;;;11.60;99.90;;;;;;5025457;28;20512;-66
2022/05/29 08:33:54;;;;;;;18.17;5.95;;;11.70;99.90;;;;;;5047524;28;20033;-66
2022/05/29 08:36:25;;;;;;;14.80;4.78;;;11.70;99.90;;;;;;5050180;28;20124;-66
2022/05/29 08:38:54;;;;;;;22.40;7.25;;;11.70;99.90;;;;;;5059089;28;20421;-66
2022/05/29 08:41:33;;;;;;;15.25;4.07;;;11.80;99.90;;;;;;5061534;28;20052;-66
2022/05/29 08:44:34;;;;;;;11.88;4.07;;;11.90;99.90;;;;;;5054282;28;20131;-66
2022/05/29 08:47:02;;;;;;;16.80;4.55;;;12.00;99.90;;;;;;5055627;28;20506;-66
2022/05/29 08:49:33;;;;;;;9.80;4.32;;;12.00;99.90;;;;;;5058923;28;20459;-66
2022/05/29 08:52:12;;;;;;;9.45;4.03;;;12.10;99.90;;;;;;5061698;28;20045;-66
2022/05/29 08:55:11;;;;;;;16.98;4.05;;;12.20;99.90;;;;;;5063223;28;20048;-66
2022/05/29 08:57:55;;;;;;;13.68;4.45;;;12.20;99.90;;;;;;5059022;28;20130;-67
2022/05/29 09:00:33;;;;;;;12.23;2.97;;;12.30;99.90;;;;;;5061683;28;20044;-66
2022/05/29 09:03:09;;;;;;;8.73;3.72;;;12.20;99.90;;;;;;5070116;28;20431;-66
2022/05/29 09:05:51;;;;;;;9.98;2.83;;;12.20;99.90;;;;;;5067274;28;20048;-66
2022/05/29 09:08:25;;;;;;;10.10;3.40;;;12.20;99.90;;;;;;5056415;28;20041;-66
2022/05/29 09:10:55;;;;;;;13.95;2.70;;;12.20;99.90;;;;;;5063692;28;20051;-66
2022/05/29 09:13:50;;;;;;;8.55;2.22;;;12.20;99.90;;;;;;5067385;28;20119;-66
2022/05/29 09:16:20;;;;;;;9.63;2.63;;;12.20;99.90;;;;;;5067431;28;20098;-66
2022/05/29 09:19:10;;;;;;;14.07;3.45;;;12.20;99.90;;;;;;5063280;28;20053;-66
2022/05/29 09:21:54;;;;;;;18.30;6.32;;;12.10;99.90;;;;;;5064477;28;20531;-66
2022/05/29 09:24:36;;;;;;;14.85;6.80;;;12.00;99.90;;;;;;5063130;28;20041;-66
2022/05/29 09:27:02;;;;;;;5.75;3.17;;;12.00;99.90;;;;;;5064057;28;20128;-66
2022/05/29 09:29:28;;;;;;;6.35;2.65;;;11.90;99.90;;;;;;5065834;28;20123;-65
2022/05/29 09:31:53;;;;;;;7.88;3.88;;;12.00;99.90;;;;;;5063035;28;20101;-66
2022/05/29 09:34:19;;;;;;;7.55;2.85;;;12.00;99.90;;;;;;5060739;28;20436;-65
2022/05/29 09:37:04;;;;;;;18.33;4.22;;;12.10;99.90;;;;;;5057356;28;20630;-65
2022/05/29 09:39:40;;;;;;;8.52;4.13;;;12.20;99.90;;;;;;5054249;28;20045;-65
2022/05/29 09:42:19;;;;;;;12.57;3.55;;;12.30;99.90;;;;;;5052839;28;20055;-66
2022/05/29 09:45:11;;;;;;;12.10;3.85;;;12.30;99.90;;;;;;5058421;28;20045;-67
2022/05/29 09:50:24;;;;;;;12.52;3.00;;;12.30;99.90;;;;;;5054493;28;20057;-66
2022/05/29 09:52:51;;;;;;;11.48;3.45;;;12.40;99.90;;;;;;5054913;28;20163;-67
2022/05/29 09:55:24;;;;;;;10.60;3.60;;;12.50;99.90;;;;;;5060425;28;20048;-67
2022/05/29 09:57:58;;;;;;;6.20;3.08;;;12.60;99.90;;;;;;5051162;28;20041;-67
2022/05/29 10:00:29;;;;;;;12.23;4.05;;;12.70;99.90;;;;;;5060421;28;20516;-66
2022/05/29 10:02:57;;;;;;;14.80;3.45;;;12.70;99.90;;;;;;5054961;28;20445;-67
2022/05/29 10:05:25;;;;;;;13.80;3.33;;;12.80;99.90;;;;;;5059020;28;20101;-66
2022/05/29 10:07:52;;;;;;;17.38;4.30;;;12.80;99.90;;;;;;5061602;28;20047;-66
2022/05/29 10:10:24;;;;;;;8.67;3.07;;;12.90;99.90;;;;;;5064346;28;20455;-67
2022/05/29 10:12:51;;;;;;;15.43;3.83;;;13.00;99.90;;;;;;5056159;28;20037;-67
2022/05/29 10:15:26;;;;;;;7.65;3.15;;;13.10;99.90;;;;;;5065305;28;20044;-67
2022/05/29 10:17:58;;;;;;;10.77;3.70;;;13.20;99.90;;;;;;5065160;28;20040;-67
2022/05/29 10:20:35;;;;;;;12.68;4.05;;;13.30;99.90;;;;;;5066283;28;20040;-66
2022/05/29 10:23:06;;;;;;;11.88;3.55;;;13.30;99.90;;;;;;5064209;28;20541;-66
2022/05/29 10:25:52;;;;;;;12.68;2.95;;;13.20;99.90;;;;;;5068378;28;20064;-67
2022/05/29 10:28:20;;;;;;;14.73;2.83;;;13.20;99.90;;;;;;5061399;28;20396;-67
2022/05/29 10:31:02;;;;;;;6.18;3.35;;;13.20;99.90;;;;;;5055860;28;20525;-67
2022/05/29 10:33:31;;;;;;;11.77;3.45;;;13.10;99.90;;;;;;5056598;28;20082;-66
2022/05/29 10:36:13;;;;;;;9.40;3.65;;;13.20;99.90;;;;;;5055163;28;20041;-66
2022/05/29 10:38:39;;;;;;;10.13;3.28;;;13.10;99.90;;;;;;5058917;28;20482;-66
2022/05/29 10:41:07;;;;;;;8.63;3.15;;;13.10;99.90;;;;;;5057204;28;20072;-66
2022/05/29 10:43:48;;;;;;;8.40;3.90;;;13.10;99.90;;;;;;5057061;28;20039;-67
2022/05/29 10:46:15;;;;;;;24.38;3.72;;;13.20;99.90;;;;;;5056928;28;20056;-67
2022/05/29 10:48:46;;;;;;;18.48;3.45;;;13.20;99.90;;;;;;5060345;28;20388;-67
2022/05/29 10:51:24;;;;;;;17.77;3.97;;;13.30;99.90;;;;;;5061769;28;20418;-67
2022/05/29 10:54:12;;;;;;;7.57;3.42;;;13.20;99.90;;;;;;5059342;28;20045;-67
2022/05/29 10:56:47;;;;;;;17.05;2.85;;;13.30;99.90;;;;;;5060041;28;20102;-67
2022/05/29 10:59:18;;;;;;;6.07;2.80;;;13.30;99.90;;;;;;5058823;28;20048;-67
2022/05/29 11:04:59;;;;;;;13.00;4.03;;;13.40;99.90;;;;;;5057777;28;20048;-68
2022/05/29 11:07:42;;;;;;;14.98;3.95;;;13.40;99.90;;;;;;5051789;28;20045;-68
2022/05/29 11:10:17;;;;;;;13.25;3.53;;;13.40;99.90;;;;;;5060560;28;20045;-68
2022/05/29 11:13:02;;;;;;;8.90;3.60;;;13.50;99.90;;;;;;5050720;28;20504;-67
2022/05/29 11:15:36;;;;;;;26.33;4.32;;;13.50;99.90;;;;;;5031423;28;20505;-68
2022/05/29 11:18:20;;;;;;;11.00;4.05;;;13.40;99.90;;;;;;5059069;28;20062;-68
2022/05/29 11:21:04;;;;;;;14.20;3.47;;;13.40;99.90;;;;;;5058622;28;20037;-68
2022/05/29 11:24:16;;;;;;;13.63;3.58;;;13.40;99.90;;;;;;5059207;28;20064;-68
2022/05/29 11:26:51;;;;;;;14.40;3.47;;;13.30;99.90;;;;;;4981206;28;20046;-68
2022/05/29 11:29:47;;;;;;;20.98;4.22;;;13.30;99.90;;;;;;5049550;28;20056;-68
2022/05/29 11:32:36;;;;;;;10.90;3.28;;;13.30;99.90;;;;;;5055352;28;20055;-69
2022/05/29 11:35:17;;;;;;;23.80;4.75;;;13.40;99.90;;;;;;5061812;28;20106;-69
2022/05/29 11:37:56;;;;;;;11.57;4.45;;;13.50;99.90;;;;;;5055295;28;20049;-68
2022/05/29 11:40:53;;;;;;;6.75;2.50;;;13.60;99.90;;;;;;5055233;28;20178;-68
2022/05/29 11:43:30;;;;;;;;;;;13.60;99.90;;;;;;5060716;28;20079;-67
2022/05/29 11:52:04;;;;;;;16.63;3.97;;;13.70;99.90;;;;;;5061075;28;20585;-69
2022/05/29 11:54:40;;;;;;;8.77;2.75;;;13.60;99.90;;;;;;5063889;28;20048;-69
2022/05/29 11:57:17;;;;;;;9.68;2.53;;;13.50;99.90;;;;;;5051751;28;20398;-69
2022/05/29 12:00:03;;;;;;;11.65;3.30;;;13.40;99.90;;;;;;5056397;28;21710;-69
2022/05/29 12:02:41;;;;;;;11.38;3.13;;;13.30;99.90;;;;;;5051948;28;20072;-69
2022/05/29 12:05:30;;;;;;;6.55;3.40;;;13.30;99.90;;;;;;5052399;28;20101;-70
2022/05/29 12:07:58;;;;;;;7.97;3.30;;;13.30;99.90;;;;;;5056128;28;20068;-69
2022/05/29 12:10:31;;;;;;;11.07;3.78;;;13.30;99.90;;;;;;5039963;28;20097;-70
2022/05/29 12:13:03;;;;;;;12.38;3.78;;;13.40;99.90;;;;;;5032332;28;20136;-70
2022/05/29 12:15:30;;;;;;;10.32;3.33;;;13.40;99.90;;;;;;5048916;28;20371;-69
2022/05/29 12:18:11;;;;;;;8.70;3.78;;;13.40;99.90;;;;;;5059051;28;20072;-70
2022/05/29 12:20:54;;;;;;;7.93;3.15;;;13.40;99.90;;;;;;5061028;28;20050;-69
2022/05/29 12:23:32;;;;;;;7.78;3.08;;;13.50;99.90;;;;;;5052424;28;20052;-70
2022/05/29 12:26:00;;;;;;;;;;;13.60;99.90;;;;;;5052021;28;20131;-68
2022/05/29 12:28:50;;;;;;;7.00;3.33;;;13.60;99.90;;;;;;5052940;28;20459;-69
2022/05/29 12:31:35;;;;;;;11.10;3.60;;;13.70;99.90;;;;;;5052004;28;20094;-69
2022/05/29 12:34:03;;;;;;;18.13;4.47;;;13.80;99.90;;;;;;5057000;28;21120;-69
2022/05/29 12:36:34;;;;;;;7.60;2.70;;;13.90;99.90;;;;;;5053434;28;20051;-70
2022/05/29 12:39:06;;;;;;;10.60;4.40;;;13.80;99.90;;;;;;5054947;28;20047;-70
2022/05/29 12:41:58;;;;;;;26.10;9.30;;;13.90;99.90;;;;;;5056345;28;20410;-69
2022/05/29 12:44:36;;;;;;;58.47;26.27;;;13.90;99.90;;;;;;5055973;28;20041;-69
2022/05/29 12:47:22;;;;;;;47.53;21.38;;;13.90;99.90;;;;;;5055916;28;20087;-68
2022/05/29 12:50:18;;;;;;;43.25;16.10;;;14.00;99.90;;;;;;5054879;28;20489;-69
2022/05/29 12:53:16;;;;;;;19.25;10.23;;;14.00;99.90;;;;;;5050389;28;20060;-69
2022/05/29 12:56:00;;;;;;;12.55;5.50;;;14.00;99.90;;;;;;5063595;28;20442;-69
2022/05/29 12:59:05;;;;;;;10.70;4.65;;;13.90;99.90;;;;;;5054464;28;20041;-68
2022/05/29 13:01:54;;;;;;;17.42;4.53;;;13.70;99.90;;;;;;5050403;28;20048;-68
2022/05/29 13:04:51;;;;;;;13.70;4.38;;;13.70;99.90;;;;;;5046978;28;20056;-68
2022/05/29 13:07:50;;;;;;;8.35;4.00;;;13.50;99.90;;;;;;5043497;28;20498;-68
2022/05/29 13:10:17;;;;;;;14.27;5.82;;;13.40;99.90;;;;;;5047894;28;20052;-68
2022/05/29 13:13:02;;;;;;;9.97;4.47;;;13.20;99.90;;;;;;5066722;28;20076;-68
2022/05/29 13:15:34;;;;;;;17.23;4.75;;;13.20;99.90;;;;;;5064679;28;20310;-68
2022/05/29 13:21:20;;;;;;;9.63;4.32;;;13.00;99.90;;;;;;5063221;28;20048;-68
2022/05/29 13:23:54;;;;;;;10.02;3.78;;;13.00;99.90;;;;;;5051366;28;20389;-68
2022/05/29 13:26:31;;;;;;;11.13;4.03;;;12.90;99.90;;;;;;5059321;28;20036;-68
2022/05/29 13:29:03;;;;;;;17.45;4.63;;;12.90;99.90;;;;;;5058025;28;20498;-68
2022/05/29 13:31:32;;;;;;;13.38;3.75;;;12.90;99.90;;;;;;5057331;28;20055;-68
2022/05/29 13:34:25;;;;;;;6.93;3.50;;;12.90;99.90;;;;;;5053424;28;20052;-68
2022/05/29 13:36:53;;;;;;;23.15;4.80;;;12.90;99.90;;;;;;5073286;28;20048;-68
2022/05/29 13:39:22;;;;;;;;;;;13.00;99.90;;;;;;5050776;28;20044;-68
2022/05/29 13:42:17;;;;;;;9.23;3.47;;;12.90;99.90;;;;;;5052564;28;19974;-69
2022/05/29 13:44:44;;;;;;;8.25;3.70;;;12.90;99.90;;;;;;5064210;28;20152;-68